sensor_id;sensor_type;location;lat;lon;timestamp;P1;durP1;ratioP1;P2;durP2;ratioP2
68821;SDS011;55834;50.870;4.606;2022-11-20T00:00:05;22.07;;;12.30;;
68821;SDS011;55834;50.870;4.606;2022-11-20T00:02:31;20.90;;;12.38;;
68821;SDS011;55834;50.870;4.606;2022-11-20T00:04:56;20.63;;;10.47;;
68821;SDS011;55834;50.870;4.606;2022-11-20T00:07:22;21.15;;;11.82;;
68821;SDS011;55834;50.870;4.606;2022-11-20T00:09:48;20.10;;;10.07;;
68821;SDS011;55834;50.870;4.606;2022-11-20T00:12:13;21.93;;;11.50;;
68821;SDS011;55834;50.870;4.606;2022-11-20T00:14:38;21.77;;;11.43;;
68821;SDS011;55834;50.870;4.606;2022-11-20T00:17:04;20.50;;;11.40;;
68821;SDS011;55834;50.870;4.606;2022-11-20T00:19:29;25.20;;;10.77;;
68821;SDS011;55834;50.870;4.606;2022-11-20T00:21:54;18.83;;;10.93;;
68821;SDS011;55834;50.870;4.606;2022-11-20T00:24:20;22.40;;;11.38;;
68821;SDS011;55834;50.870;4.606;2022-11-20T00:26:46;18.73;;;10.20;;
68821;SDS011;55834;50.870;4.606;2022-11-20T00:29:11;24.70;;;13.57;;
68821;SDS011;55834;50.870;4.606;2022-11-20T00:31:36;20.17;;;10.07;;
68821;SDS011;55834;50.870;4.606;2022-11-20T00:34:02;19.33;;;10.93;;
68821;SDS011;55834;50.870;4.606;2022-11-20T00:36:27;21.92;;;10.75;;
68821;SDS011;55834;50.870;4.606;2022-11-20T00:38:57;22.30;;;11.63;;
68821;SDS011;55834;50.870;4.606;2022-11-20T00:41:23;21.85;;;11.68;;
68821;SDS011;55834;50.870;4.606;2022-11-20T00:43:51;19.08;;;10.55;;
68821;SDS011;55834;50.870;4.606;2022-11-20T00:46:18;20.30;;;10.48;;
68821;SDS011;55834;50.870;4.606;2022-11-20T00:48:45;22.58;;;11.45;;
68821;SDS011;55834;50.870;4.606;2022-11-20T00:51:11;19.95;;;10.13;;
68821;SDS011;55834;50.870;4.606;2022-11-20T00:53:38;22.23;;;11.70;;
68821;SDS011;55834;50.870;4.606;2022-11-20T00:56:05;22.00;;;12.13;;
68821;SDS011;55834;50.870;4.606;2022-11-20T00:58:32;21.95;;;11.52;;
68821;SDS011;55834;50.870;4.606;2022-11-20T01:01:00;18.13;;;11.10;;
68821;SDS011;55834;50.870;4.606;2022-11-20T01:03:27;18.80;;;10.15;;
68821;SDS011;55834;50.870;4.606;2022-11-20T01:05:59;21.13;;;10.52;;
68821;SDS011;55834;50.870;4.606;2022-11-20T01:08:28;19.75;;;10.75;;
68821;SDS011;55834;50.870;4.606;2022-11-20T01:10:58;20.73;;;10.93;;
68821;SDS011;55834;50.870;4.606;2022-11-20T01:13:25;24.55;;;11.63;;
68821;SDS011;55834;50.870;4.606;2022-11-20T01:16:05;19.60;;;11.68;;
68821;SDS011;55834;50.870;4.606;2022-11-20T01:18:39;21.63;;;10.55;;
68821;SDS011;55834;50.870;4.606;2022-11-20T01:21:07;26.48;;;10.73;;
68821;SDS011;55834;50.870;4.606;2022-11-20T01:23:36;22.50;;;12.15;;
68821;SDS011;55834;50.870;4.606;2022-11-20T01:26:03;21.10;;;10.23;;
68821;SDS011;55834;50.870;4.606;2022-11-20T01:28:30;24.33;;;10.73;;
68821;SDS011;55834;50.870;4.606;2022-11-20T01:30:56;21.58;;;10.20;;
68821;SDS011;55834;50.870;4.606;2022-11-20T01:33:22;22.75;;;11.48;;
68821;SDS011;55834;50.870;4.606;2022-11-20T01:35:48;22.20;;;10.98;;
68821;SDS011;55834;50.870;4.606;2022-11-20T01:38:14;23.67;;;11.18;;
68821;SDS011;55834;50.870;4.606;2022-11-20T01:40:40;23.50;;;11.85;;
68821;SDS011;55834;50.870;4.606;2022-11-20T01:43:11;23.73;;;11.43;;
68821;SDS011;55834;50.870;4.606;2022-11-20T01:51:21;24.33;;;11.85;;
68821;SDS011;55834;50.870;4.606;2022-11-20T01:53:55;23.83;;;11.75;;
68821;SDS011;55834;50.870;4.606;2022-11-20T01:56:23;21.90;;;11.82;;
68821;SDS011;55834;50.870;4.606;2022-11-20T01:58:51;28.48;;;12.88;;
68821;SDS011;55834;50.870;4.606;2022-11-20T02:01:19;24.08;;;13.15;;
68821;SDS011;55834;50.870;4.606;2022-11-20T02:03:46;24.67;;;12.90;;
68821;SDS011;55834;50.870;4.606;2022-11-20T02:06:14;23.13;;;13.00;;
68821;SDS011;55834;50.870;4.606;2022-11-20T02:08:45;25.83;;;12.35;;
68821;SDS011;55834;50.870;4.606;2022-11-20T02:11:11;25.50;;;10.40;;
68821;SDS011;55834;50.870;4.606;2022-11-20T02:13:37;27.77;;;12.88;;
68821;SDS011;55834;50.870;4.606;2022-11-20T02:18:44;25.17;;;12.63;;
68821;SDS011;55834;50.870;4.606;2022-11-20T02:21:17;25.05;;;13.15;;
68821;SDS011;55834;50.870;4.606;2022-11-20T02:24:02;24.55;;;11.68;;
68821;SDS011;55834;50.870;4.606;2022-11-20T02:26:30;21.40;;;11.35;;
68821;SDS011;55834;50.870;4.606;2022-11-20T02:28:58;23.30;;;12.00;;
68821;SDS011;55834;50.870;4.606;2022-11-20T02:31:25;24.23;;;12.02;;
68821;SDS011;55834;50.870;4.606;2022-11-20T02:33:55;24.65;;;13.82;;
68821;SDS011;55834;50.870;4.606;2022-11-20T02:36:21;27.08;;;12.77;;
68821;SDS011;55834;50.870;4.606;2022-11-20T02:38:48;24.02;;;12.48;;
68821;SDS011;55834;50.870;4.606;2022-11-20T02:41:14;24.40;;;12.27;;
68821;SDS011;55834;50.870;4.606;2022-11-20T02:43:40;28.00;;;13.37;;
68821;SDS011;55834;50.870;4.606;2022-11-20T02:46:06;29.37;;;12.80;;
68821;SDS011;55834;50.870;4.606;2022-11-20T02:48:32;26.65;;;12.30;;
68821;SDS011;55834;50.870;4.606;2022-11-20T02:50:57;27.40;;;12.27;;
68821;SDS011;55834;50.870;4.606;2022-11-20T02:53:23;28.47;;;11.63;;
68821;SDS011;55834;50.870;4.606;2022-11-20T02:55:48;28.00;;;14.13;;
68821;SDS011;55834;50.870;4.606;2022-11-20T02:58:13;28.37;;;13.00;;
68821;SDS011;55834;50.870;4.606;2022-11-20T03:00:39;30.23;;;12.60;;
68821;SDS011;55834;50.870;4.606;2022-11-20T03:03:04;29.07;;;14.20;;
68821;SDS011;55834;50.870;4.606;2022-11-20T03:05:29;31.73;;;14.43;;
68821;SDS011;55834;50.870;4.606;2022-11-20T03:07:54;31.20;;;14.70;;
68821;SDS011;55834;50.870;4.606;2022-11-20T03:10:20;28.93;;;12.67;;
68821;SDS011;55834;50.870;4.606;2022-11-20T03:12:45;28.40;;;12.93;;
68821;SDS011;55834;50.870;4.606;2022-11-20T03:15:10;30.73;;;13.73;;
68821;SDS011;55834;50.870;4.606;2022-11-20T03:17:36;28.73;;;13.37;;
68821;SDS011;55834;50.870;4.606;2022-11-20T03:20:01;30.77;;;15.03;;
68821;SDS011;55834;50.870;4.606;2022-11-20T03:22:31;31.33;;;12.25;;
68821;SDS011;55834;50.870;4.606;2022-11-20T03:24:56;26.65;;;12.70;;
68821;SDS011;55834;50.870;4.606;2022-11-20T03:27:21;29.73;;;12.40;;
68821;SDS011;55834;50.870;4.606;2022-11-20T03:29:47;29.80;;;13.17;;
68821;SDS011;55834;50.870;4.606;2022-11-20T03:32:12;30.13;;;13.13;;
68821;SDS011;55834;50.870;4.606;2022-11-20T03:34:37;29.10;;;14.17;;
68821;SDS011;55834;50.870;4.606;2022-11-20T03:37:03;29.87;;;13.60;;
68821;SDS011;55834;50.870;4.606;2022-11-20T03:39:28;30.10;;;14.17;;
68821;SDS011;55834;50.870;4.606;2022-11-20T03:41:53;27.10;;;12.00;;
68821;SDS011;55834;50.870;4.606;2022-11-20T03:44:20;25.50;;;11.80;;
68821;SDS011;55834;50.870;4.606;2022-11-20T03:46:46;28.73;;;13.07;;
68821;SDS011;55834;50.870;4.606;2022-11-20T03:49:11;26.43;;;11.17;;
68821;SDS011;55834;50.870;4.606;2022-11-20T03:51:37;23.60;;;11.80;;
68821;SDS011;55834;50.870;4.606;2022-11-20T03:54:04;25.17;;;13.90;;
68821;SDS011;55834;50.870;4.606;2022-11-20T03:56:33;24.63;;;11.50;;
68821;SDS011;55834;50.870;4.606;2022-11-20T03:59:02;28.23;;;12.65;;
68821;SDS011;55834;50.870;4.606;2022-11-20T04:01:29;28.23;;;11.88;;
68821;SDS011;55834;50.870;4.606;2022-11-20T04:03:59;30.30;;;12.98;;
68821;SDS011;55834;50.870;4.606;2022-11-20T04:06:35;25.35;;;12.00;;
68821;SDS011;55834;50.870;4.606;2022-11-20T04:09:02;24.80;;;12.88;;
68821;SDS011;55834;50.870;4.606;2022-11-20T04:11:30;24.65;;;10.98;;
68821;SDS011;55834;50.870;4.606;2022-11-20T04:14:00;19.65;;;9.60;;
68821;SDS011;55834;50.870;4.606;2022-11-20T04:16:32;27.33;;;11.73;;
68821;SDS011;55834;50.870;4.606;2022-11-20T04:19:00;22.65;;;11.18;;
68821;SDS011;55834;50.870;4.606;2022-11-20T04:21:28;19.73;;;9.77;;
68821;SDS011;55834;50.870;4.606;2022-11-20T04:23:54;21.77;;;9.77;;
68821;SDS011;55834;50.870;4.606;2022-11-20T04:26:20;19.23;;;9.75;;
68821;SDS011;55834;50.870;4.606;2022-11-20T04:28:46;21.23;;;9.90;;
68821;SDS011;55834;50.870;4.606;2022-11-20T04:31:13;21.00;;;10.57;;
68821;SDS011;55834;50.870;4.606;2022-11-20T04:33:39;18.48;;;9.57;;
68821;SDS011;55834;50.870;4.606;2022-11-20T04:36:06;19.52;;;10.73;;
68821;SDS011;55834;50.870;4.606;2022-11-20T04:38:36;25.10;;;10.43;;
68821;SDS011;55834;50.870;4.606;2022-11-20T04:41:03;24.92;;;10.88;;
68821;SDS011;55834;50.870;4.606;2022-11-20T04:43:30;20.65;;;8.90;;
68821;SDS011;55834;50.870;4.606;2022-11-20T04:45:57;21.25;;;9.50;;
68821;SDS011;55834;50.870;4.606;2022-11-20T04:48:23;20.88;;;9.57;;
68821;SDS011;55834;50.870;4.606;2022-11-20T04:50:49;20.85;;;9.63;;
68821;SDS011;55834;50.870;4.606;2022-11-20T04:53:15;20.70;;;10.75;;
68821;SDS011;55834;50.870;4.606;2022-11-20T04:55:41;16.13;;;8.25;;
68821;SDS011;55834;50.870;4.606;2022-11-20T04:58:06;19.35;;;10.18;;
68821;SDS011;55834;50.870;4.606;2022-11-20T05:00:32;17.87;;;8.70;;
68821;SDS011;55834;50.870;4.606;2022-11-20T05:02:57;19.10;;;8.13;;
68821;SDS011;55834;50.870;4.606;2022-11-20T05:05:23;19.60;;;8.30;;
68821;SDS011;55834;50.870;4.606;2022-11-20T05:07:48;18.33;;;8.70;;
68821;SDS011;55834;50.870;4.606;2022-11-20T05:10:13;17.77;;;9.53;;
68821;SDS011;55834;50.870;4.606;2022-11-20T05:12:39;22.65;;;10.18;;
68821;SDS011;55834;50.870;4.606;2022-11-20T05:15:04;22.15;;;11.65;;
68821;SDS011;55834;50.870;4.606;2022-11-20T05:17:30;20.95;;;10.30;;
68821;SDS011;55834;50.870;4.606;2022-11-20T05:19:55;22.03;;;10.93;;
68821;SDS011;55834;50.870;4.606;2022-11-20T05:22:21;20.42;;;9.52;;
68821;SDS011;55834;50.870;4.606;2022-11-20T05:24:46;20.77;;;11.73;;
68821;SDS011;55834;50.870;4.606;2022-11-20T05:27:11;21.10;;;10.67;;
68821;SDS011;55834;50.870;4.606;2022-11-20T05:29:37;23.23;;;10.17;;
68821;SDS011;55834;50.870;4.606;2022-11-20T05:32:02;20.00;;;10.80;;
68821;SDS011;55834;50.870;4.606;2022-11-20T05:34:27;22.27;;;9.95;;
68821;SDS011;55834;50.870;4.606;2022-11-20T05:36:53;20.47;;;9.37;;
68821;SDS011;55834;50.870;4.606;2022-11-20T05:39:18;22.87;;;10.40;;
68821;SDS011;55834;50.870;4.606;2022-11-20T05:41:43;19.87;;;9.17;;
68821;SDS011;55834;50.870;4.606;2022-11-20T05:44:12;22.60;;;10.30;;
68821;SDS011;55834;50.870;4.606;2022-11-20T05:46:37;18.70;;;10.02;;
68821;SDS011;55834;50.870;4.606;2022-11-20T05:49:03;20.53;;;9.67;;
68821;SDS011;55834;50.870;4.606;2022-11-20T05:51:29;21.48;;;9.80;;
68821;SDS011;55834;50.870;4.606;2022-11-20T05:53:57;18.83;;;8.10;;
68821;SDS011;55834;50.870;4.606;2022-11-20T05:56:23;20.17;;;9.40;;
68821;SDS011;55834;50.870;4.606;2022-11-20T05:58:48;22.37;;;9.57;;
68821;SDS011;55834;50.870;4.606;2022-11-20T06:01:16;22.00;;;10.45;;
68821;SDS011;55834;50.870;4.606;2022-11-20T06:03:46;21.42;;;9.40;;
68821;SDS011;55834;50.870;4.606;2022-11-20T06:06:13;19.95;;;9.48;;
68821;SDS011;55834;50.870;4.606;2022-11-20T06:08:39;19.88;;;9.63;;
68821;SDS011;55834;50.870;4.606;2022-11-20T06:11:05;22.42;;;11.20;;
68821;SDS011;55834;50.870;4.606;2022-11-20T06:13:32;22.17;;;10.52;;
68821;SDS011;55834;50.870;4.606;2022-11-20T06:15:58;20.38;;;9.68;;
68821;SDS011;55834;50.870;4.606;2022-11-20T06:18:25;25.80;;;13.32;;
68821;SDS011;55834;50.870;4.606;2022-11-20T06:20:58;25.67;;;10.95;;
68821;SDS011;55834;50.870;4.606;2022-11-20T06:23:34;19.60;;;9.00;;
68821;SDS011;55834;50.870;4.606;2022-11-20T06:26:01;18.83;;;8.90;;
68821;SDS011;55834;50.870;4.606;2022-11-20T06:28:30;23.83;;;9.40;;
68821;SDS011;55834;50.870;4.606;2022-11-20T06:30:56;27.20;;;11.10;;
68821;SDS011;55834;50.870;4.606;2022-11-20T06:33:22;29.25;;;11.65;;
68821;SDS011;55834;50.870;4.606;2022-11-20T06:35:47;27.33;;;10.30;;
68821;SDS011;55834;50.870;4.606;2022-11-20T06:38:13;28.43;;;11.57;;
68821;SDS011;55834;50.870;4.606;2022-11-20T06:40:41;31.27;;;13.97;;
68821;SDS011;55834;50.870;4.606;2022-11-20T06:43:07;30.45;;;13.13;;
68821;SDS011;55834;50.870;4.606;2022-11-20T06:45:34;32.58;;;12.00;;
68821;SDS011;55834;50.870;4.606;2022-11-20T06:47:59;26.70;;;12.60;;
68821;SDS011;55834;50.870;4.606;2022-11-20T06:50:24;29.07;;;12.10;;
68821;SDS011;55834;50.870;4.606;2022-11-20T06:52:50;32.87;;;11.90;;
68821;SDS011;55834;50.870;4.606;2022-11-20T06:55:15;36.40;;;12.80;;
68821;SDS011;55834;50.870;4.606;2022-11-20T06:57:40;35.75;;;14.85;;
68821;SDS011;55834;50.870;4.606;2022-11-20T07:00:06;39.47;;;13.50;;
68821;SDS011;55834;50.870;4.606;2022-11-20T07:02:32;39.85;;;15.38;;
68821;SDS011;55834;50.870;4.606;2022-11-20T07:04:57;32.43;;;12.37;;
68821;SDS011;55834;50.870;4.606;2022-11-20T07:07:22;33.37;;;12.33;;
68821;SDS011;55834;50.870;4.606;2022-11-20T07:09:47;45.50;;;13.37;;
68821;SDS011;55834;50.870;4.606;2022-11-20T07:12:13;37.83;;;14.23;;
68821;SDS011;55834;50.870;4.606;2022-11-20T07:14:38;38.43;;;15.13;;
68821;SDS011;55834;50.870;4.606;2022-11-20T07:17:03;34.37;;;12.73;;
68821;SDS011;55834;50.870;4.606;2022-11-20T07:19:29;34.40;;;12.23;;
68821;SDS011;55834;50.870;4.606;2022-11-20T07:21:54;38.63;;;13.87;;
68821;SDS011;55834;50.870;4.606;2022-11-20T07:24:19;48.90;;;16.03;;
68821;SDS011;55834;50.870;4.606;2022-11-20T07:26:47;59.37;;;19.80;;
68821;SDS011;55834;50.870;4.606;2022-11-20T07:29:14;39.15;;;15.25;;
68821;SDS011;55834;50.870;4.606;2022-11-20T07:31:40;41.13;;;15.13;;
68821;SDS011;55834;50.870;4.606;2022-11-20T07:34:05;46.53;;;16.80;;
68821;SDS011;55834;50.870;4.606;2022-11-20T07:36:31;35.87;;;12.73;;
68821;SDS011;55834;50.870;4.606;2022-11-20T07:38:56;48.67;;;17.47;;
68821;SDS011;55834;50.870;4.606;2022-11-20T07:41:21;39.20;;;12.90;;
68821;SDS011;55834;50.870;4.606;2022-11-20T07:43:46;33.93;;;14.40;;
68821;SDS011;55834;50.870;4.606;2022-11-20T07:46:12;31.40;;;13.17;;
68821;SDS011;55834;50.870;4.606;2022-11-20T07:48:37;37.37;;;13.93;;
68821;SDS011;55834;50.870;4.606;2022-11-20T07:51:02;38.37;;;13.47;;
68821;SDS011;55834;50.870;4.606;2022-11-20T07:53:28;34.88;;;12.05;;
68821;SDS011;55834;50.870;4.606;2022-11-20T07:55:53;33.70;;;13.07;;
68821;SDS011;55834;50.870;4.606;2022-11-20T07:58:19;31.40;;;12.47;;
68821;SDS011;55834;50.870;4.606;2022-11-20T08:00:45;39.55;;;15.50;;
68821;SDS011;55834;50.870;4.606;2022-11-20T08:03:11;34.88;;;14.85;;
68821;SDS011;55834;50.870;4.606;2022-11-20T08:05:36;38.72;;;13.65;;
68821;SDS011;55834;50.870;4.606;2022-11-20T08:08:02;37.10;;;15.85;;
68821;SDS011;55834;50.870;4.606;2022-11-20T08:10:28;34.08;;;13.73;;
68821;SDS011;55834;50.870;4.606;2022-11-20T08:12:53;33.60;;;15.27;;
68821;SDS011;55834;50.870;4.606;2022-11-20T08:15:38;36.10;;;14.40;;
68821;SDS011;55834;50.870;4.606;2022-11-20T08:18:05;43.50;;;18.35;;
68821;SDS011;55834;50.870;4.606;2022-11-20T08:20:37;48.60;;;16.45;;
68821;SDS011;55834;50.870;4.606;2022-11-20T08:23:04;48.53;;;22.92;;
68821;SDS011;55834;50.870;4.606;2022-11-20T08:25:30;52.55;;;21.25;;
68821;SDS011;55834;50.870;4.606;2022-11-20T08:27:58;49.55;;;23.85;;
68821;SDS011;55834;50.870;4.606;2022-11-20T08:30:28;37.22;;;13.90;;
68821;SDS011;55834;50.870;4.606;2022-11-20T08:32:54;34.13;;;14.18;;
68821;SDS011;55834;50.870;4.606;2022-11-20T08:35:22;66.32;;;23.90;;
68821;SDS011;55834;50.870;4.606;2022-11-20T08:37:48;45.78;;;18.05;;
68821;SDS011;55834;50.870;4.606;2022-11-20T08:40:13;38.03;;;14.07;;
68821;SDS011;55834;50.870;4.606;2022-11-20T08:42:46;36.20;;;14.48;;
68821;SDS011;55834;50.870;4.606;2022-11-20T08:45:12;35.42;;;12.68;;
68821;SDS011;55834;50.870;4.606;2022-11-20T08:47:38;39.75;;;15.52;;
68821;SDS011;55834;50.870;4.606;2022-11-20T08:50:03;32.23;;;13.03;;
68821;SDS011;55834;50.870;4.606;2022-11-20T08:52:29;33.95;;;13.55;;
68821;SDS011;55834;50.870;4.606;2022-11-20T08:54:54;33.63;;;13.03;;
68821;SDS011;55834;50.870;4.606;2022-11-20T08:57:19;37.40;;;14.23;;
68821;SDS011;55834;50.870;4.606;2022-11-20T08:59:45;33.93;;;13.07;;
68821;SDS011;55834;50.870;4.606;2022-11-20T09:02:10;41.15;;;14.77;;
68821;SDS011;55834;50.870;4.606;2022-11-20T09:04:36;36.35;;;11.82;;
68821;SDS011;55834;50.870;4.606;2022-11-20T09:07:02;36.93;;;12.67;;
68821;SDS011;55834;50.870;4.606;2022-11-20T09:09:28;35.08;;;13.55;;
68821;SDS011;55834;50.870;4.606;2022-11-20T09:11:53;36.60;;;14.38;;
68821;SDS011;55834;50.870;4.606;2022-11-20T09:14:18;34.57;;;11.37;;
68821;SDS011;55834;50.870;4.606;2022-11-20T09:16:44;34.37;;;14.23;;
68821;SDS011;55834;50.870;4.606;2022-11-20T09:19:10;30.80;;;11.63;;
68821;SDS011;55834;50.870;4.606;2022-11-20T09:21:35;37.30;;;14.17;;
68821;SDS011;55834;50.870;4.606;2022-11-20T09:24:01;37.53;;;14.00;;
68821;SDS011;55834;50.870;4.606;2022-11-20T09:26:26;28.55;;;12.13;;
68821;SDS011;55834;50.870;4.606;2022-11-20T09:28:52;31.40;;;11.43;;
68821;SDS011;55834;50.870;4.606;2022-11-20T09:31:21;34.23;;;13.03;;
68821;SDS011;55834;50.870;4.606;2022-11-20T09:33:48;34.38;;;11.98;;
68821;SDS011;55834;50.870;4.606;2022-11-20T09:36:13;30.10;;;11.63;;
68821;SDS011;55834;50.870;4.606;2022-11-20T09:38:39;37.92;;;12.23;;
68821;SDS011;55834;50.870;4.606;2022-11-20T09:41:05;34.05;;;11.18;;
68821;SDS011;55834;50.870;4.606;2022-11-20T09:49:00;25.58;;;9.65;;
68821;SDS011;55834;50.870;4.606;2022-11-20T09:54:21;32.45;;;13.95;;
68821;SDS011;55834;50.870;4.606;2022-11-20T09:56:53;26.50;;;10.00;;
68821;SDS011;55834;50.870;4.606;2022-11-20T09:59:26;27.17;;;10.88;;
68821;SDS011;55834;50.870;4.606;2022-11-20T10:03:11;30.40;;;10.07;;
68821;SDS011;55834;50.870;4.606;2022-11-20T10:07:49;36.13;;;11.88;;
68821;SDS011;55834;50.870;4.606;2022-11-20T10:13:27;25.63;;;11.88;;
68821;SDS011;55834;50.870;4.606;2022-11-20T10:19:38;28.02;;;10.25;;
68821;SDS011;55834;50.870;4.606;2022-11-20T10:27:59;26.63;;;10.67;;
68821;SDS011;55834;50.870;4.606;2022-11-20T10:30:09;24.23;;;9.45;;
68821;SDS011;55834;50.870;4.606;2022-11-20T10:32:36;23.33;;;10.40;;
68821;SDS011;55834;50.870;4.606;2022-11-20T10:35:05;20.98;;;8.27;;
68821;SDS011;55834;50.870;4.606;2022-11-20T10:37:41;20.02;;;8.93;;
68821;SDS011;55834;50.870;4.606;2022-11-20T10:40:53;17.83;;;8.70;;
68821;SDS011;55834;50.870;4.606;2022-11-20T10:43:09;17.75;;;8.02;;
68821;SDS011;55834;50.870;4.606;2022-11-20T10:48:24;20.55;;;8.35;;
68821;SDS011;55834;50.870;4.606;2022-11-20T11:02:24;12.98;;;6.47;;
68821;SDS011;55834;50.870;4.606;2022-11-20T11:04:57;14.30;;;5.72;;
68821;SDS011;55834;50.870;4.606;2022-11-20T11:07:32;14.85;;;7.47;;
68821;SDS011;55834;50.870;4.606;2022-11-20T11:10:05;9.30;;;5.03;;
68821;SDS011;55834;50.870;4.606;2022-11-20T11:12:46;9.48;;;4.60;;
68821;SDS011;55834;50.870;4.606;2022-11-20T11:15:58;7.22;;;3.53;;
68821;SDS011;55834;50.870;4.606;2022-11-20T11:18:09;9.23;;;4.25;;
68821;SDS011;55834;50.870;4.606;2022-11-20T11:20:36;5.82;;;3.22;;
68821;SDS011;55834;50.870;4.606;2022-11-20T11:23:01;8.20;;;4.15;;
68821;SDS011;55834;50.870;4.606;2022-11-20T11:25:34;5.15;;;3.42;;
68821;SDS011;55834;50.870;4.606;2022-11-20T11:28:02;5.90;;;2.80;;
68821;SDS011;55834;50.870;4.606;2022-11-20T11:30:29;4.97;;;2.70;;
68821;SDS011;55834;50.870;4.606;2022-11-20T11:33:06;5.80;;;2.55;;
68821;SDS011;55834;50.870;4.606;2022-11-20T11:35:42;4.82;;;2.28;;
68821;SDS011;55834;50.870;4.606;2022-11-20T11:38:12;10.90;;;4.38;;
68821;SDS011;55834;50.870;4.606;2022-11-20T11:40:41;10.55;;;4.25;;
68821;SDS011;55834;50.870;4.606;2022-11-20T11:43:15;9.77;;;5.65;;
68821;SDS011;55834;50.870;4.606;2022-11-20T11:46:02;8.20;;;4.32;;
68821;SDS011;55834;50.870;4.606;2022-11-20T11:48:27;7.57;;;4.45;;
68821;SDS011;55834;50.870;4.606;2022-11-20T11:50:52;5.37;;;3.13;;
68821;SDS011;55834;50.870;4.606;2022-11-20T11:53:19;6.05;;;2.15;;
68821;SDS011;55834;50.870;4.606;2022-11-20T11:56:08;4.28;;;2.60;;
68821;SDS011;55834;50.870;4.606;2022-11-20T11:58:49;5.00;;;3.53;;
68821;SDS011;55834;50.870;4.606;2022-11-20T12:01:22;3.92;;;2.13;;
68821;SDS011;55834;50.870;4.606;2022-11-20T12:04:02;5.75;;;1.88;;
68821;SDS011;55834;50.870;4.606;2022-11-20T12:06:37;3.40;;;2.45;;
68821;SDS011;55834;50.870;4.606;2022-11-20T12:09:10;5.60;;;2.08;;
68821;SDS011;55834;50.870;4.606;2022-11-20T12:11:49;3.45;;;1.92;;
68821;SDS011;55834;50.870;4.606;2022-11-20T12:14:27;3.78;;;1.88;;
68821;SDS011;55834;50.870;4.606;2022-11-20T12:16:59;2.08;;;1.30;;
68821;SDS011;55834;50.870;4.606;2022-11-20T12:19:26;5.45;;;1.55;;
68821;SDS011;55834;50.870;4.606;2022-11-20T12:25:04;4.82;;;1.63;;
68821;SDS011;55834;50.870;4.606;2022-11-20T12:30:39;3.20;;;2.00;;
68821;SDS011;55834;50.870;4.606;2022-11-20T12:33:31;2.72;;;1.35;;
68821;SDS011;55834;50.870;4.606;2022-11-20T12:36:56;5.32;;;2.33;;
68821;SDS011;55834;50.870;4.606;2022-11-20T12:41:50;1.50;;;1.23;;
68821;SDS011;55834;50.870;4.606;2022-11-20T12:53:59;5.72;;;1.67;;
68821;SDS011;55834;50.870;4.606;2022-11-20T13:08:02;3.38;;;3.08;;
68821;SDS011;55834;50.870;4.606;2022-11-20T13:10:33;3.88;;;1.83;;
68821;SDS011;55834;50.870;4.606;2022-11-20T13:13:11;4.90;;;2.10;;
68821;SDS011;55834;50.870;4.606;2022-11-20T13:18:22;3.15;;;2.10;;
68821;SDS011;55834;50.870;4.606;2022-11-20T13:20:47;3.60;;;1.70;;
68821;SDS011;55834;50.870;4.606;2022-11-20T13:23:26;2.70;;;1.50;;
68821;SDS011;55834;50.870;4.606;2022-11-20T13:26:35;3.20;;;1.80;;
68821;SDS011;55834;50.870;4.606;2022-11-20T13:28:45;2.40;;;1.50;;
68821;SDS011;55834;50.870;4.606;2022-11-20T13:31:24;4.10;;;1.88;;
68821;SDS011;55834;50.870;4.606;2022-11-20T13:33:55;3.58;;;1.73;;
68821;SDS011;55834;50.870;4.606;2022-11-20T13:36:23;3.25;;;1.70;;
68821;SDS011;55834;50.870;4.606;2022-11-20T13:38:51;4.63;;;2.03;;
68821;SDS011;55834;50.870;4.606;2022-11-20T13:41:31;4.97;;;2.13;;
68821;SDS011;55834;50.870;4.606;2022-11-20T13:44:14;4.20;;;1.88;;
68821;SDS011;55834;50.870;4.606;2022-11-20T13:46:48;6.00;;;1.52;;
68821;SDS011;55834;50.870;4.606;2022-11-20T13:49:25;5.77;;;1.77;;
68821;SDS011;55834;50.870;4.606;2022-11-20T13:52:38;4.32;;;1.80;;
68821;SDS011;55834;50.870;4.606;2022-11-20T14:00:28;3.22;;;2.30;;
68821;SDS011;55834;50.870;4.606;2022-11-20T14:05:35;2.95;;;2.00;;
68821;SDS011;55834;50.870;4.606;2022-11-20T14:08:06;3.53;;;1.67;;
68821;SDS011;55834;50.870;4.606;2022-11-20T14:10:36;5.05;;;1.65;;
68821;SDS011;55834;50.870;4.606;2022-11-20T14:13:10;3.40;;;2.63;;
68821;SDS011;55834;50.870;4.606;2022-11-20T14:15:40;2.83;;;2.00;;
68821;SDS011;55834;50.870;4.606;2022-11-20T14:21:02;3.80;;;1.83;;
68821;SDS011;55834;50.870;4.606;2022-11-20T14:23:28;3.58;;;2.08;;
68821;SDS011;55834;50.870;4.606;2022-11-20T14:25:54;3.58;;;1.83;;
68821;SDS011;55834;50.870;4.606;2022-11-20T14:28:29;2.70;;;1.63;;
68821;SDS011;55834;50.870;4.606;2022-11-20T14:30:57;2.10;;;1.73;;
68821;SDS011;55834;50.870;4.606;2022-11-20T14:33:23;3.00;;;2.08;;
68821;SDS011;55834;50.870;4.606;2022-11-20T14:35:54;3.17;;;1.95;;
68821;SDS011;55834;50.870;4.606;2022-11-20T14:38:23;3.15;;;2.00;;
68821;SDS011;55834;50.870;4.606;2022-11-20T14:40:51;4.22;;;2.20;;
68821;SDS011;55834;50.870;4.606;2022-11-20T14:43:24;1.58;;;1.23;;
68821;SDS011;55834;50.870;4.606;2022-11-20T14:45:57;2.38;;;1.88;;
68821;SDS011;55834;50.870;4.606;2022-11-20T14:48:36;2.13;;;2.00;;
68821;SDS011;55834;50.870;4.606;2022-11-20T14:51:05;1.95;;;1.05;;
68821;SDS011;55834;50.870;4.606;2022-11-20T14:53:30;2.65;;;1.60;;
68821;SDS011;55834;50.870;4.606;2022-11-20T14:55:57;2.30;;;2.08;;
68821;SDS011;55834;50.870;4.606;2022-11-20T14:58:30;2.08;;;1.00;;
68821;SDS011;55834;50.870;4.606;2022-11-20T15:01:02;1.45;;;1.35;;
68821;SDS011;55834;50.870;4.606;2022-11-20T15:03:33;3.75;;;2.45;;
68821;SDS011;55834;50.870;4.606;2022-11-20T15:06:01;2.55;;;1.77;;
68821;SDS011;55834;50.870;4.606;2022-11-20T15:08:26;2.28;;;1.60;;
68821;SDS011;55834;50.870;4.606;2022-11-20T15:10:52;3.08;;;1.83;;
68821;SDS011;55834;50.870;4.606;2022-11-20T15:13:32;1.77;;;1.58;;
68821;SDS011;55834;50.870;4.606;2022-11-20T15:16:01;2.47;;;1.95;;
68821;SDS011;55834;50.870;4.606;2022-11-20T15:18:37;3.22;;;2.22;;
68821;SDS011;55834;50.870;4.606;2022-11-20T15:21:10;2.85;;;1.88;;
68821;SDS011;55834;50.870;4.606;2022-11-20T15:23:37;1.40;;;1.30;;
68821;SDS011;55834;50.870;4.606;2022-11-20T15:26:06;2.97;;;1.73;;
68821;SDS011;55834;50.870;4.606;2022-11-20T15:28:39;3.17;;;1.70;;
68821;SDS011;55834;50.870;4.606;2022-11-20T15:31:09;3.28;;;1.90;;
68821;SDS011;55834;50.870;4.606;2022-11-20T15:33:37;1.95;;;1.75;;
68821;SDS011;55834;50.870;4.606;2022-11-20T15:36:03;6.63;;;2.87;;
68821;SDS011;55834;50.870;4.606;2022-11-20T15:38:29;2.15;;;1.85;;
68821;SDS011;55834;50.870;4.606;2022-11-20T15:40:55;5.40;;;3.00;;
68821;SDS011;55834;50.870;4.606;2022-11-20T15:43:21;2.17;;;1.90;;
68821;SDS011;55834;50.870;4.606;2022-11-20T15:45:54;2.67;;;2.38;;
68821;SDS011;55834;50.870;4.606;2022-11-20T15:48:44;3.00;;;1.70;;
68821;SDS011;55834;50.870;4.606;2022-11-20T15:51:27;3.25;;;2.45;;
68821;SDS011;55834;50.870;4.606;2022-11-20T15:53:55;3.35;;;2.38;;
68821;SDS011;55834;50.870;4.606;2022-11-20T15:56:21;3.22;;;2.05;;
68821;SDS011;55834;50.870;4.606;2022-11-20T15:58:47;3.03;;;2.58;;
68821;SDS011;55834;50.870;4.606;2022-11-20T16:01:13;5.43;;;2.15;;
68821;SDS011;55834;50.870;4.606;2022-11-20T16:03:41;3.42;;;2.50;;
68821;SDS011;55834;50.870;4.606;2022-11-20T16:06:06;4.70;;;1.80;;
68821;SDS011;55834;50.870;4.606;2022-11-20T16:08:32;4.75;;;2.35;;